Time;durP1;ratioP1;P1;durP2;ratioP2;P2;SDS_P1;SDS_P2;PMS_P1;PMS_P2;Temp;Humidity;BMP_temperature;BMP_pressure;BME280_temperature;BME280_humidity;BME280_pressure;Samples;Min_cycle;Max_cycle;Signal;HPM_P1;HPM_P2
2021/12/22 00:00:55;;;;;;;;;64.25;47.75;;;;;2.11;67.24;101942.56;4978937;28;45246;-65
2021/12/22 00:03:22;;;;;;;;;51.25;43.50;;;;;2.13;67.42;101960.88;4978650;28;46248;-64
2021/12/22 00:05:48;;;;;;;;;62.25;47.00;;;;;1.85;67.09;101911.28;4978386;28;45390;-65
2021/12/22 00:08:17;;;;;;;;;51.50;39.75;;;;;2.18;66.89;101958.91;4978534;28;45305;-66
2021/12/22 00:10:44;;;;;;;;;57.50;46.00;;;;;2.06;66.89;101949.78;4978849;28;45480;-65
2021/12/22 00:13:09;;;;;;;;;53.75;40.75;;;;;1.93;67.59;101940.66;4976919;28;48537;-65
2021/12/22 00:15:35;;;;;;;;;52.75;41.00;;;;;1.99;67.40;101955.28;4978500;28;45221;-65
2021/12/22 00:18:00;;;;;;;;;59.00;44.00;;;;;1.93;67.89;101950.28;4979806;28;45389;-65
2021/12/22 00:20:26;;;;;;;;;51.00;40.75;;;;;1.70;67.92;101906.63;4978689;28;45526;-67
2021/12/22 00:22:51;;;;;;;;;58.25;43.75;;;;;1.87;67.91;101934.81;4978677;28;45628;-69
2021/12/22 00:25:16;;;;;;;;;58.25;41.50;;;;;1.99;67.63;101937.78;4977180;28;45379;-65
2021/12/22 00:27:42;;;;;;;;;60.50;46.00;;;;;1.88;67.61;101908.53;4977472;28;45326;-64
2021/12/22 00:30:11;;;;;;;;;57.50;46.00;;;;;1.82;67.79;101900.91;4978748;28;45409;-67
2021/12/22 00:32:37;;;;;;;;;61.50;45.75;;;;;1.68;67.86;101877.84;4993510;28;46916;-67
2021/12/22 00:35:04;;;;;;;;;60.00;45.50;;;;;1.72;67.74;101868.94;4993238;28;45243;-67
2021/12/22 00:37:31;;;;;;;;;47.50;41.00;;;;;2.07;67.50;101927.00;4978345;28;45257;-67
2021/12/22 00:39:58;;;;;;;;;59.75;45.75;;;;;1.66;67.49;101869.19;4978261;28;45444;-66
2021/12/22 00:42:24;;;;;;;;;59.75;43.75;;;;;1.93;68.00;101937.19;4992738;28;47729;-65
2021/12/22 00:44:53;;;;;;;;;46.75;35.75;;;;;1.94;68.41;101939.75;4977999;28;45325;-66
2021/12/22 00:47:25;;;;;;;;;50.50;40.00;;;;;1.99;68.32;101944.81;4977924;28;45230;-65
2021/12/22 00:49:50;;;;;;;;;52.50;41.50;;;;;1.88;67.61;101926.88;4976922;28;45529;-64
2021/12/22 00:52:16;;;;;;;;;59.50;43.25;;;;;1.72;67.98;101899.53;4977872;28;45926;-64
2021/12/22 00:54:42;;;;;;;;;49.50;40.50;;;;;2.02;67.94;101939.47;4977804;28;45427;-64
2021/12/22 00:57:09;;;;;;;;;52.00;41.25;;;;;1.94;67.63;101916.13;4977999;28;45533;-65
2021/12/22 00:59:36;;;;;;;;;47.50;40.50;;;;;1.97;67.79;101925.66;4976878;28;45503;-66
2021/12/22 01:02:05;;;;;;;;;50.00;41.50;;;;;1.94;67.67;101933.66;4977683;28;47827;-66
2021/12/22 01:04:30;;;;;;;;;51.00;40.50;;;;;1.82;68.14;101927.97;4976087;28;45535;-66
2021/12/22 01:06:56;;;;;;;;;50.75;40.50;;;;;1.85;68.38;101927.00;4977949;28;45460;-65
2021/12/22 01:09:21;;;;;;;;;59.50;41.50;;;;;1.32;68.35;101830.31;4978051;28;45382;-65
2021/12/22 01:11:47;;;;;;;;;51.00;42.00;;;;;1.99;67.77;101934.31;4977698;28;46308;-65
2021/12/22 01:14:13;;;;;;;;;56.00;45.25;;;;;2.09;67.49;101935.69;4977644;28;45218;-65
2021/12/22 01:16:39;;;;;;;;;52.25;41.25;;;;;2.06;67.97;101930.56;4977798;28;45385;-66
2021/12/22 01:19:12;;;;;;;;;58.50;41.00;;;;;2.04;67.69;101932.38;4995822;28;45342;-65
2021/12/22 01:21:44;;;;;;;;;55.50;40.75;;;;;1.88;68.07;101916.38;4997181;28;46555;-69
2021/12/22 01:24:22;;;;;;;;;52.25;40.00;;;;;2.00;68.11;101936.03;4997378;28;45471;-66
2021/12/22 01:26:53;;;;;;;;;57.25;45.50;;;;;1.97;67.74;101933.53;4997300;28;45490;-65
2021/12/22 01:29:19;;;;;;;;;54.00;42.00;;;;;2.11;67.68;101945.19;4996326;28;45470;-65
2021/12/22 01:31:45;;;;;;;;;48.25;38.00;;;;;2.06;67.21;101926.16;4995510;28;47297;-64
2021/12/22 01:34:11;;;;;;;;;50.00;41.00;;;;;2.01;67.54;101925.50;4997000;28;46024;-64
2021/12/22 01:36:37;;;;;;;;;57.50;45.25;;;;;1.96;68.09;101916.94;4997259;28;45419;-65
2021/12/22 01:39:04;;;;;;;;;45.75;38.25;;;;;2.01;68.00;101922.88;4997529;28;45222;-64
2021/12/22 01:41:29;;;;;;;;;44.00;37.25;;;;;2.04;67.92;101922.75;4996758;28;45774;-65
2021/12/22 01:43:55;;;;;;;;;59.00;43.75;;;;;2.06;67.93;101931.41;4995603;28;45413;-65
2021/12/22 01:49:14;;;;;;;;;57.75;43.50;;;;;1.94;68.17;101908.28;4977682;28;45502;-66
2021/12/22 01:51:54;;;;;;;;;53.25;41.00;;;;;1.98;68.09;101914.25;4977197;28;46410;-66
2021/12/22 01:54:19;;;;;;;;;46.00;39.25;;;;;1.99;68.17;101919.44;4977141;28;45402;-67
2021/12/22 01:56:46;;;;;;;;;55.75;43.00;;;;;1.97;68.18;101913.38;4975646;28;45394;-64
2021/12/22 01:59:11;;;;;;;;;42.75;34.50;;;;;2.01;67.93;101914.16;4977774;28;45378;-64
2021/12/22 02:01:38;;;;;;;;;53.75;44.75;;;;;2.00;68.18;101913.31;4976808;28;47418;-65
2021/12/22 02:04:06;;;;;;;;;40.50;31.25;;;;;1.98;68.31;101906.38;4977123;28;45387;-66
2021/12/22 02:06:32;;;;;;;;;49.25;41.25;;;;;2.00;68.54;101921.16;4977096;28;45464;-67
2021/12/22 02:08:58;;;;;;;;;50.75;41.75;;;;;1.87;68.67;101909.44;4977208;28;45519;-66
2021/12/22 02:11:24;;;;;;;;;49.00;41.25;;;;;1.94;68.66;101924.00;4976950;28;45840;-65
2021/12/22 02:13:58;;;;;;;;;49.00;41.50;;;;;1.76;69.13;101895.88;4976924;28;45336;-64
2021/12/22 02:16:28;;;;;;;;;53.25;41.75;;;;;1.85;69.01;101907.78;4978215;28;45535;-65
2021/12/22 02:18:55;;;;;;;;;60.25;43.00;;;;;1.85;69.12;101908.66;4999126;28;45614;-65
2021/12/22 02:21:23;;;;;;;;;56.25;45.75;;;;;1.72;68.99;101887.28;4999928;28;47393;-65
2021/12/22 02:23:49;;;;;;;;;56.50;45.75;;;;;1.90;69.00;101914.56;4999804;28;45311;-64
2021/12/22 02:26:22;;;;;;;;;61.25;47.00;;;;;1.81;68.95;101912.31;4999930;28;45771;-65
2021/12/22 02:28:56;;;;;;;;;61.75;44.50;;;;;1.89;69.36;101910.22;4998744;28;45537;-65
2021/12/22 02:31:22;;;;;;;;;61.75;46.25;;;;;1.93;68.75;101905.72;4999775;28;46798;-65
2021/12/22 02:33:49;;;;;;;;;62.25;47.25;;;;;1.92;68.95;101917.97;4999557;28;45399;-65
2021/12/22 02:38:51;;;;;;;;;61.75;45.25;;;;;1.80;68.80;101905.31;4997872;28;45614;-66
2021/12/22 02:41:18;;;;;;;;;59.25;48.25;;;;;1.91;69.12;101902.31;4999564;28;45458;-66
2021/12/22 02:43:50;;;;;;;;;49.50;42.00;;;;;1.42;68.42;101810.72;4999692;28;45283;-66
2021/12/22 02:46:25;;;;;;;;;50.50;44.00;;;;;1.71;68.41;101879.47;4998300;28;45432;-64
2021/12/22 02:48:51;;;;;;;;;59.75;48.25;;;;;1.69;69.05;101889.19;4999550;28;45388;-65
2021/12/22 02:51:18;;;;;;;;;59.50;45.75;;;;;1.70;69.39;101904.00;4999373;28;46893;-65
2021/12/22 02:54:05;;;;;;;;;52.00;43.75;;;;;1.55;69.33;101883.59;4999529;28;45229;-65
2021/12/22 03:04:20;;;;;;;;;61.50;47.00;;;;;1.71;69.44;101903.94;4999405;28;45507;-65
2021/12/22 03:07:22;;;;;;;;;59.00;46.25;;;;;1.68;69.53;101896.19;4999387;28;45343;-64
2021/12/22 03:09:38;;;;;;;;;57.25;41.25;;;;;1.64;69.57;101901.63;4981241;28;45578;-65
2021/12/22 03:12:06;;;;;;;;;59.50;47.75;;;;;1.60;69.76;101905.25;4979372;28;45970;-65
2021/12/22 03:14:32;;;;;;;;;57.00;46.75;;;;;1.63;69.40;101918.25;4978086;28;46059;-65
2021/12/22 03:16:58;;;;;;;;;55.50;44.25;;;;;1.56;69.56;101908.91;4979488;28;45301;-65
2021/12/22 03:19:27;;;;;;;;;43.50;38.00;;;;;1.46;68.83;101898.78;4979898;28;45488;-65
2021/12/22 03:21:59;;;;;;;;;53.00;44.25;;;;;1.44;69.31;101873.53;4979384;28;45665;-65
2021/12/22 03:24:26;;;;;;;;;58.25;48.25;;;;;1.49;69.19;101882.94;4979182;28;45431;-64
2021/12/22 03:26:51;;;;;;;;;55.00;43.50;;;;;1.43;68.86;101891.03;4994274;28;45298;-65
2021/12/22 03:29:18;;;;;;;;;65.25;52.25;;;;;1.40;69.10;101905.97;4978479;28;45481;-66
2021/12/22 03:31:45;;;;;;;;;59.50;45.25;;;;;1.26;69.80;101882.94;4979386;28;46600;-66
2021/12/22 03:34:11;;;;;;;;;51.00;41.75;;;;;1.38;69.47;101905.19;4979116;28;45387;-65
2021/12/22 03:36:37;;;;;;;;;52.00;42.75;;;;;1.28;69.96;101891.59;4979305;28;45484;-64
2021/12/22 03:39:05;;;;;;;;;57.75;48.00;;;;;1.34;70.03;101877.41;4979459;28;46385;-65
2021/12/22 03:41:31;;;;;;;;;54.00;43.75;;;;;1.40;70.28;101888.53;4978990;28;46278;-65
2021/12/22 03:43:56;;;;;;;;;56.25;46.00;;;;;1.40;70.55;101893.78;4978756;28;45326;-65
2021/12/22 03:46:22;;;;;;;;;55.75;45.75;;;;;1.18;70.52;101845.69;4978995;28;45515;-65
2021/12/22 03:48:47;;;;;;;;;55.75;45.75;;;;;1.51;69.66;101894.19;4979308;28;45353;-65
2021/12/22 03:51:12;;;;;;;;;64.75;49.00;;;;;1.56;69.79;101893.16;4979056;28;46583;-64
2021/12/22 03:53:38;;;;;;;;;54.75;41.75;;;;;1.42;69.60;101870.97;4978670;28;45441;-64
2021/12/22 03:56:04;;;;;;;;;55.00;44.75;;;;;1.61;69.48;101893.88;4979086;28;45517;-66
2021/12/22 03:58:30;;;;;;;;;63.75;44.75;;;;;1.73;68.71;101890.75;4994232;28;45360;-65
2021/12/22 04:00:56;;;;;;;;;60.75;47.75;;;;;1.68;69.05;101876.97;4977427;28;46438;-66
2021/12/22 04:03:26;;;;;;;;;63.75;45.25;;;;;1.81;68.36;101892.19;4978795;28;45206;-65
2021/12/22 04:05:51;;;;;;;;;66.75;53.25;;;;;1.65;69.31;101871.88;4978662;28;45251;-65
2021/12/22 04:08:18;;;;;;;;;62.25;49.75;;;;;0.65;68.77;101712.41;4979105;28;45313;-64
2021/12/22 04:10:48;;;;;;;;;58.50;44.50;;;;;1.81;68.83;101883.47;4978528;28;46047;-65
2021/12/22 04:13:15;;;;;;;;;48.25;37.50;;;;;1.90;68.22;101888.34;4978478;28;45262;-65
2021/12/22 04:15:42;;;;;;;;;62.50;45.00;;;;;1.83;68.45;101871.16;4978549;28;45222;-65
2021/12/22 04:18:07;;;;;;;;;65.50;47.75;;;;;1.87;67.84;101864.84;4978503;28;45450;-64
2021/12/22 04:20:33;;;;;;;;;59.50;47.50;;;;;1.94;68.44;101868.09;4978209;28;46274;-65
2021/12/22 04:22:59;;;;;;;;;54.25;45.00;;;;;1.87;68.29;101872.72;4993554;28;45409;-65
2021/12/22 04:25:26;;;;;;;;;56.50;45.25;;;;;1.93;68.70;101872.47;4993680;28;45464;-65
2021/12/22 04:27:55;;;;;;;;;52.25;41.50;;;;;1.87;68.30;101857.00;4993763;28;45349;-64
2021/12/22 04:30:22;;;;;;;;;57.25;45.25;;;;;1.93;68.36;101874.25;4976883;28;47792;-65
2021/12/22 04:32:49;;;;;;;;;58.50;47.25;;;;;1.90;68.24;101882.25;4978119;28;45325;-65
2021/12/22 04:35:15;;;;;;;;;61.75;48.25;;;;;1.86;68.34;101881.50;4978299;28;45582;-65
2021/12/22 04:37:40;;;;;;;;;52.25;42.75;;;;;1.86;68.61;101883.28;4978671;28;45440;-65
2021/12/22 04:40:06;;;;;;;;;60.50;46.25;;;;;1.93;68.49;101888.22;4977473;28;45479;-65
2021/12/22 04:42:31;;;;;;;;;55.50;39.25;;;;;1.50;67.78;101811.25;4978133;28;45357;-65
2021/12/22 04:44:58;;;;;;;;;51.00;43.75;;;;;1.86;68.14;101865.78;4978228;28;45456;-66
2021/12/22 04:47:24;;;;;;;;;40.75;34.25;;;;;1.55;67.64;101812.84;4993307;28;45451;-64
2021/12/22 04:49:49;;;;;;;;;56.00;44.00;;;;;1.93;67.81;101879.50;4977962;28;46366;-66
2021/12/22 04:52:20;;;;;;;;;51.75;42.00;;;;;2.07;67.79;101891.16;4992955;28;45333;-65
2021/12/22 04:54:52;;;;;;;;;54.75;39.25;;;;;1.94;67.91;101868.94;4976720;28;45575;-66
2021/12/22 04:57:17;;;;;;;;;56.50;42.25;;;;;2.11;67.06;101899.75;4978126;28;45421;-65
2021/12/22 04:59:43;;;;;;;;;55.00;43.00;;;;;1.71;67.08;101820.03;4977690;28;45691;-66
2021/12/22 05:02:09;;;;;;;;;59.50;45.75;;;;;2.03;67.24;101871.22;4977592;28;45273;-66
2021/12/22 05:04:35;;;;;;;;;55.50;44.50;;;;;1.84;66.58;101838.78;4978001;28;45357;-66
2021/12/22 05:07:00;;;;;;;;;48.25;41.75;;;;;2.24;66.68;101884.38;4978043;28;45369;-66
2021/12/22 05:09:26;;;;;;;;;59.75;45.50;;;;;2.30;66.46;101884.09;4993961;28;45284;-66
2021/12/22 05:11:52;;;;;;;;;47.50;40.75;;;;;2.40;66.02;101882.78;4997316;28;45477;-65
2021/12/22 05:14:17;;;;;;;;;51.00;42.75;;;;;2.29;66.42;101867.50;4983033;28;45233;-66
2021/12/22 05:16:48;;;;;;;;;41.75;37.00;;;;;2.35;65.71;101867.25;4977793;28;45475;-64
2021/12/22 05:19:16;;;;;;;;;61.25;43.75;;;;;2.22;66.30;101852.09;4977366;28;47532;-66
2021/12/22 05:21:43;;;;;;;;;53.00;40.25;;;;;2.24;65.97;101850.25;4977416;28;45508;-65
2021/12/22 05:24:09;;;;;;;;;52.75;43.75;;;;;2.12;65.82;101870.81;4977646;28;45370;-65
2021/12/22 05:26:35;;;;;;;;;51.25;40.50;;;;;2.07;66.12;101867.53;4977495;28;45574;-66
2021/12/22 05:29:01;;;;;;;;;54.00;39.25;;;;;2.09;66.22;101863.06;4977206;28;45659;-66
2021/12/22 05:31:27;;;;;;;;;51.75;41.00;;;;;1.73;66.13;101814.72;4977278;28;45377;-65
2021/12/22 05:33:53;;;;;;;;;55.50;41.50;;;;;1.74;66.73;101840.03;4976255;28;45515;-66
2021/12/22 05:36:18;;;;;;;;;45.75;41.00;;;;;1.75;66.70;101849.59;4977623;28;45495;-65
2021/12/22 05:38:44;;;;;;;;;53.25;39.50;;;;;1.80;66.54;101872.13;4977643;28;45641;-65
2021/12/22 05:41:09;;;;;;;;;50.50;37.75;;;;;1.75;66.82;101871.44;4992765;28;45514;-66
2021/12/22 05:43:35;;;;;;;;;45.50;36.50;;;;;1.65;67.55;101853.50;4996809;28;45471;-66
2021/12/22 05:46:00;;;;;;;;;53.25;42.00;;;;;1.72;67.76;101874.19;4996974;28;45525;-67
2021/12/22 05:48:26;;;;;;;;;40.50;35.25;;;;;1.68;67.34;101867.34;4996766;28;45821;-65
2021/12/22 05:50:56;;;;;;;;;48.00;41.50;;;;;1.20;67.24;101792.34;4994214;28;45564;-65
2021/12/22 05:53:21;;;;;;;;;44.25;38.50;;;;;1.59;67.29;101861.59;4979048;28;45316;-65
2021/12/22 05:55:47;;;;;;;;;50.75;41.25;;;;;1.49;67.32;101866.34;4977376;28;45210;-65
2021/12/22 05:58:12;;;;;;;;;52.50;40.00;;;;;1.49;67.09;101877.69;4976747;28;45448;-65
2021/12/22 06:00:38;;;;;;;;;53.50;42.50;;;;;1.50;67.02;101876.78;4977076;28;45334;-66
2021/12/22 06:03:03;;;;;;;;;49.00;41.50;;;;;1.45;67.33;101896.22;4977092;28;45338;-65
2021/12/22 06:05:29;;;;;;;;;45.25;37.75;;;;;1.38;67.64;101887.69;4977225;28;45404;-66
2021/12/22 06:07:54;;;;;;;;;29.00;24.25;;;;;0.99;68.04;101821.06;4977126;28;45963;-65
2021/12/22 06:10:19;;;;;;;;;48.50;40.00;;;;;1.31;67.54;101875.75;4975620;28;46357;-65
2021/12/22 06:12:45;;;;;;;;;53.50;41.00;;;;;1.40;67.61;101878.03;4975500;28;45395;-65
2021/12/22 06:15:10;;;;;;;;;53.00;40.75;;;;;1.17;67.82;101828.25;4992172;28;45362;-64
2021/12/22 06:17:36;;;;;;;;;52.25;45.00;;;;;1.47;67.65;101870.81;4976948;28;46314;-66
2021/12/22 06:20:03;;;;;;;;;51.50;43.75;;;;;1.55;68.19;101880.97;4976637;28;45476;-65
2021/12/22 06:22:30;;;;;;;;;52.00;39.25;;;;;1.32;68.25;101840.78;4984612;28;45291;-64
2021/12/22 06:24:56;;;;;;;;;48.00;42.25;;;;;1.50;67.63;101861.03;4983095;28;45239;-65
2021/12/22 06:27:21;;;;;;;;;42.75;37.75;;;;;1.31;67.65;101836.47;4976062;28;45939;-65
2021/12/22 06:29:47;;;;;;;;;61.25;45.50;;;;;1.43;67.11;101862.19;4976841;28;45404;-65
2021/12/22 06:32:12;;;;;;;;;47.75;41.75;;;;;1.46;67.62;101888.28;4991784;28;45423;-66
2021/12/22 06:34:38;;;;;;;;;56.00;46.25;;;;;1.38;68.22;101874.59;4976936;28;45297;-67
2021/12/22 06:37:04;;;;;;;;;63.25;46.00;;;;;1.35;68.46;101882.59;4976366;28;45926;-65
2021/12/22 06:39:29;;;;;;;;;54.75;41.25;;;;;1.32;69.15;101880.09;4976560;28;45349;-65
2021/12/22 06:41:55;;;;;;;;;59.25;46.75;;;;;1.36;68.79;101875.56;4976727;28;45678;-65
2021/12/22 06:44:23;;;;;;;;;52.50;41.00;;;;;1.32;68.52;101890.56;4976662;28;45319;-65
2021/12/22 06:46:49;;;;;;;;;58.50;47.00;;;;;1.27;68.70;101876.78;4975001;28;48778;-66
2021/12/22 06:49:14;;;;;;;;;54.75;39.50;;;;;1.19;68.71;101882.28;4976165;28;45287;-66
2021/12/22 06:51:39;;;;;;;;;62.00;47.50;;;;;0.95;68.84;101859.63;4991606;28;46015;-66
2021/12/22 06:54:05;;;;;;;;;54.50;40.50;;;;;1.21;68.93;101897.97;4976573;28;45203;-66
2021/12/22 06:56:31;;;;;;;;;59.50;42.50;;;;;1.28;68.74;101902.06;4976015;28;46471;-65
2021/12/22 06:58:57;;;;;;;;;58.50;42.50;;;;;1.32;68.82;101895.81;4976092;28;45604;-65
2021/12/22 07:01:23;;;;;;;;;52.75;42.00;;;;;1.15;68.15;101866.75;4976096;28;45376;-64
2021/12/22 07:03:49;;;;;;;;;57.75;45.00;;;;;1.40;68.77;101904.25;4979240;28;45575;-64
2021/12/22 07:06:16;;;;;;;;;58.75;44.75;;;;;1.42;67.73;101901.56;4994422;28;47350;-66
2021/12/22 07:08:41;;;;;;;;;61.50;45.00;;;;;1.41;68.59;101898.09;4979474;28;45426;-65
2021/12/22 07:11:07;;;;;;;;;63.75;47.00;;;;;1.30;68.18;101871.44;4979575;28;45303;-66
2021/12/22 07:13:33;;;;;;;;;58.75;44.25;;;;;1.30;67.85;101865.34;4979545;28;45171;-66
2021/12/22 07:15:58;;;;;;;;;60.00;45.25;;;;;1.38;68.27;101879.84;4977902;28;46638;-65
2021/12/22 07:18:24;;;;;;;;;62.25;50.25;;;;;1.34;68.49;101878.25;4977726;28;46315;-66
2021/12/22 07:20:49;;;;;;;;;64.75;50.00;;;;;1.14;68.19;101865.03;4979721;28;45207;-66
2021/12/22 07:23:15;;;;;;;;;57.75;44.25;;;;;1.26;68.32;101885.56;4994184;28;45450;-64
2021/12/22 07:25:40;;;;;;;;;62.50;45.25;;;;;1.24;68.75;101886.53;4977840;28;47831;-64
2021/12/22 07:28:08;;;;;;;;;59.00;45.25;;;;;1.27;68.30;101876.78;4978985;28;45274;-65
2021/12/22 07:30:34;;;;;;;;;55.50;43.00;;;;;1.01;68.19;101814.06;4979370;28;45444;-66
2021/12/22 07:32:59;;;;;;;;;64.00;47.75;;;;;1.09;68.50;101830.31;4979327;28;45325;-65
2021/12/22 07:35:33;;;;;;;;;58.75;40.50;;;;;1.27;68.05;101854.97;4978910;28;45557;-66
2021/12/22 07:38:10;;;;;;;;;57.75;38.75;;;;;1.41;67.59;101892.00;4978875;28;45290;-65
2021/12/22 07:40:36;;;;;;;;;57.50;44.50;;;;;1.34;67.59;101878.25;4978992;28;45254;-65
2021/12/22 07:43:02;;;;;;;;;49.00;44.00;;;;;1.33;68.26;101892.25;4977846;28;45420;-65
2021/12/22 07:45:28;;;;;;;;;57.00;41.50;;;;;1.32;67.67;101880.09;4978971;28;46362;-65
2021/12/22 07:47:53;;;;;;;;;58.75;42.50;;;;;1.32;67.63;101876.59;4993893;28;45253;-66
2021/12/22 07:50:18;;;;;;;;;57.75;39.75;;;;;1.32;67.26;101869.59;4978936;28;45562;-66
2021/12/22 07:52:44;;;;;;;;;60.25;45.75;;;;;1.46;67.82;101890.91;4991528;28;45244;-65
2021/12/22 07:55:09;;;;;;;;;57.50;43.50;;;;;1.07;67.72;101811.19;4998018;28;45286;-66
2021/12/22 07:57:35;;;;;;;;;51.25;43.50;;;;;1.04;67.33;101816.56;4998176;28;45214;-66
2021/12/22 08:00:00;;;;;;;;;63.00;46.25;;;;;1.40;67.72;101885.91;4997897;28;45301;-66
2021/12/22 08:02:25;;;;;;;;;61.25;40.75;;;;;1.43;67.81;101879.69;4998505;28;45448;-67
2021/12/22 08:04:51;;;;;;;;;58.00;45.25;;;;;1.45;67.57;101875.25;4996728;28;46876;-66
2021/12/22 08:07:16;;;;;;;;;60.50;48.00;;;;;1.59;66.87;101904.38;4998258;28;45425;-66
2021/12/22 08:09:41;;;;;;;;;50.50;36.50;;;;;1.63;67.28;101900.75;4996682;28;45224;-65
2021/12/22 08:12:08;;;;;;;;;36.25;35.25;;;;;1.51;66.97;101865.38;4998351;28;45511;-67
2021/12/22 08:14:35;;;;;;;;;60.00;44.75;;;;;1.62;66.91;101896.44;4997137;28;45674;-67
2021/12/22 08:17:01;;;;;;;;;62.00;47.75;;;;;1.64;66.48;101896.38;4995941;28;45302;-67
2021/12/22 08:19:26;;;;;;;;;56.75;43.00;;;;;1.68;66.66;101885.69;4996571;28;45330;-65
2021/12/22 08:21:52;;;;;;;;;58.50;42.50;;;;;1.56;67.11;101843.38;4998072;28;45348;-65
2021/12/22 08:24:18;;;;;;;;;57.50;42.50;;;;;1.86;66.64;101878.88;4997890;28;45705;-66
2021/12/22 08:26:43;;;;;;;;;58.75;45.75;;;;;1.96;66.45;101884.59;4997921;28;45210;-66
2021/12/22 08:29:09;;;;;;;;;62.00;42.25;;;;;1.85;66.63;101863.22;4996570;28;45406;-66
2021/12/22 08:31:34;;;;;;;;;63.75;45.75;;;;;1.99;66.93;101871.38;4996673;28;45234;-66
2021/12/22 08:34:00;;;;;;;;;58.50;44.50;;;;;1.91;66.83;101874.31;4997418;28;45487;-65
2021/12/22 08:39:12;;;;;;;;;69.50;48.50;;;;;1.65;66.86;101862.22;4997719;28;45499;-66
2021/12/22 08:41:47;;;;;;;;;59.50;43.75;;;;;1.66;67.67;101863.09;4997829;28;45415;-65
2021/12/22 08:44:14;;;;;;;;;60.25;47.00;;;;;1.78;67.18;101879.16;4997240;28;46150;-66
2021/12/22 08:46:43;;;;;;;;;63.00;47.50;;;;;1.91;66.71;101873.47;4996665;28;45455;-67
2021/12/22 08:49:09;;;;;;;;;62.75;47.25;;;;;1.89;67.11;101870.03;4977886;28;45667;-66
2021/12/22 08:51:35;;;;;;;;;57.50;43.50;;;;;2.04;66.60;101883.41;4977892;28;45239;-67
2021/12/22 08:54:01;;;;;;;;;62.50;45.25;;;;;2.00;65.39;101873.97;4977616;28;45479;-67
2021/12/22 08:56:27;;;;;;;;;58.25;43.50;;;;;2.02;65.83;101872.13;4978095;28;45950;-67
2021/12/22 08:58:54;;;;;;;;;62.25;48.50;;;;;1.94;65.88;101862.84;4976653;28;45452;-66
2021/12/22 09:01:21;;;;;;;;;63.50;50.00;;;;;1.81;66.63;101857.25;4992524;28;45368;-66
2021/12/22 09:03:47;;;;;;;;;66.00;46.25;;;;;1.84;66.64;101862.38;4977085;28;45420;-65
2021/12/22 09:06:13;;;;;;;;;60.25;48.25;;;;;1.78;67.15;101855.56;4977312;28;45347;-66
2021/12/22 09:08:39;;;;;;;;;63.25;50.00;;;;;1.80;67.03;101858.13;4976053;28;45492;-66
2021/12/22 09:11:04;;;;;;;;;61.00;47.50;;;;;1.67;66.95;101851.69;4992117;28;45558;-66
2021/12/22 09:13:30;;;;;;;;;54.25;43.50;;;;;1.72;67.12;101860.22;4975546;28;47303;-66
2021/12/22 09:15:55;;;;;;;;;62.00;44.75;;;;;1.80;66.52;101871.25;4977520;28;45502;-66
2021/12/22 09:18:21;;;;;;;;;41.50;34.25;;;;;1.79;66.70;101869.53;4977814;28;45307;-66
2021/12/22 09:20:46;;;;;;;;;48.75;37.75;;;;;1.78;66.98;101866.06;4977532;28;45568;-66
2021/12/22 09:23:12;;;;;;;;;62.75;48.50;;;;;1.73;67.23;101864.53;4976967;28;46593;-66
2021/12/22 09:25:37;;;;;;;;;59.75;46.25;;;;;1.66;66.81;101857.84;4990766;28;45516;-66
2021/12/22 09:28:03;;;;;;;;;52.75;41.50;;;;;1.52;66.86;101840.03;4977181;28;45460;-67
2021/12/22 09:30:35;;;;;;;;;56.75;43.75;;;;;1.69;67.03;101853.31;4977168;28;45305;-66
2021/12/22 09:33:06;;;;;;;;;55.75;44.50;;;;;1.85;66.50;101858.81;4991841;28;48456;-66
2021/12/22 09:35:32;;;;;;;;;54.50;39.75;;;;;1.97;66.33;101867.97;4977030;28;45477;-66
2021/12/22 09:37:57;;;;;;;;;60.25;44.00;;;;;1.87;66.00;101841.25;4976903;28;45285;-65
2021/12/22 09:40:23;;;;;;;;;60.75;45.00;;;;;1.96;66.52;101872.34;4977183;28;45170;-66
2021/12/22 09:42:48;;;;;;;;;51.75;39.25;;;;;1.77;66.50;101847.78;4976486;28;46537;-66
2021/12/22 09:45:15;;;;;;;;;50.75;37.25;;;;;1.80;66.63;101859.03;4977084;28;45331;-65
2021/12/22 09:48:00;;;;;;;;;59.25;46.00;;;;;1.94;66.78;101871.56;4991984;28;45428;-65
2021/12/22 09:50:39;;;;;;;;;60.50;44.25;;;;;2.01;66.40;101878.28;4976812;28;45410;-65
2021/12/22 09:53:05;;;;;;;;;50.75;42.00;;;;;1.83;65.95;101839.69;4976329;28;45777;-66
2021/12/22 09:55:34;;;;;;;;;60.75;43.75;;;;;1.85;65.49;101853.59;4975376;28;46346;-65
2021/12/22 09:58:02;;;;;;;;;60.00;48.00;;;;;2.08;65.31;101881.50;4976644;28;45238;-66
2021/12/22 10:00:27;;;;;;;;;64.25;48.25;;;;;2.08;65.43;101886.75;4976460;28;45654;-65
2021/12/22 10:02:53;;;;;;;;;53.75;43.25;;;;;2.04;66.12;101874.69;4991547;28;46896;-66
2021/12/22 10:05:18;;;;;;;;;55.75;38.75;;;;;2.04;66.47;101870.28;4976725;28;45293;-65
2021/12/22 10:07:44;;;;;;;;;63.50;46.25;;;;;1.96;65.27;101846.13;4976509;28;45290;-65
2021/12/22 10:10:11;;;;;;;;;51.25;38.00;;;;;2.19;65.65;101878.44;4976709;28;45309;-66
2021/12/22 10:12:38;;;;;;;;;56.25;38.75;;;;;2.35;66.15;101890.88;4976399;28;46311;-66
2021/12/22 10:15:08;;;;;;;;;58.75;45.25;;;;;2.40;65.26;101878.44;4991315;28;45317;-67
2021/12/22 10:17:42;;;;;;;;;47.25;40.25;;;;;2.50;64.91;101878.88;4980229;28;45344;-67
2021/12/22 10:20:12;;;;;;;;;62.00;46.75;;;;;2.34;64.48;101862.06;4991757;28;45528;-67
2021/12/22 10:22:41;;;;;;;;;64.25;51.50;;;;;2.32;65.25;101884.91;4976255;28;45840;-67
2021/12/22 10:25:14;;;;;;;;;64.75;48.25;;;;;1.93;64.43;101819.16;4976184;28;45551;-66
2021/12/22 10:27:44;;;;;;;;;60.25;42.00;;;;;2.26;65.12;101875.50;4976430;28;45464;-65
2021/12/22 10:30:39;;;;;;;;;65.25;51.00;;;;;2.33;65.09;101878.72;4975120;28;45552;-65
2021/12/22 10:33:20;;;;;;;;;66.25;47.25;;;;;2.47;64.99;101884.25;4991175;28;47607;-64
2021/12/22 10:35:48;;;;;;;;;67.50;50.50;;;;;2.08;64.89;101795.78;4976360;28;45211;-66
2021/12/22 10:38:16;;;;;;;;;66.50;50.25;;;;;2.53;64.00;101870.03;4978454;28;45357;-65
2021/12/22 10:40:44;;;;;;;;;59.75;48.25;;;;;2.52;64.27;101861.28;4979891;28;45525;-65
2021/12/22 10:43:22;;;;;;;;;56.25;45.25;;;;;2.09;64.24;101794.03;4979116;28;46412;-65
2021/12/22 10:45:51;;;;;;;;;59.25;47.00;;;;;2.55;64.63;101861.16;4994443;28;46208;-66
2021/12/22 10:51:12;;;;;;;;;60.00;44.00;;;;;2.52;64.03;101844.69;4979778;28;45424;-66
2021/12/22 10:53:46;;;;;;;;;64.25;51.75;;;;;2.54;63.77;101822.69;4994483;28;46877;-67
2021/12/22 10:56:30;;;;;;;;;47.50;39.25;;;;;2.25;64.07;101749.63;4979050;28;45393;-66
2021/12/22 10:59:01;;;;;;;;;65.00;49.75;;;;;2.53;63.43;101783.41;4979289;28;45407;-66
2021/12/22 11:01:27;;;;;;;;;51.00;39.75;;;;;2.60;63.26;101796.22;4979231;28;45463;-66
2021/12/22 11:04:01;;;;;;;;;52.00;41.50;;;;;2.69;63.21;101819.41;4978991;28;47208;-66
2021/12/22 11:06:29;;;;;;;;;61.75;47.75;;;;;2.64;63.20;101828.44;4994012;28;45322;-68
2021/12/22 11:08:56;;;;;;;;;67.00;50.50;;;;;2.43;64.05;101812.69;4993780;28;45507;-65
2021/12/22 11:11:22;;;;;;;;;62.25;47.50;;;;;2.34;64.13;101801.72;4979280;28;45354;-68
2021/12/22 11:14:10;;;;;;;;;61.75;47.25;;;;;2.48;63.85;101822.97;4978696;28;47036;-66
2021/12/22 11:16:58;;;;;;;;;55.75;44.00;;;;;2.43;64.15;101815.31;4979308;28;45518;-67
2021/12/22 11:19:27;;;;;;;;;56.50;42.00;;;;;2.37;64.38;101812.91;4979033;28;45402;-66
2021/12/22 11:22:14;;;;;;;;;65.00;50.50;;;;;2.46;64.01;101808.22;4994218;28;45349;-66
2021/12/22 11:24:46;;;;;;;;;59.00;48.00;;;;;2.48;63.91;101807.22;4978975;28;46402;-66
2021/12/22 11:27:16;;;;;;;;;61.50;47.25;;;;;2.38;63.88;101783.13;4979003;28;45269;-66
2021/12/22 11:29:46;;;;;;;;;53.50;43.50;;;;;2.44;63.88;101787.28;4978737;28;45207;-67
2021/12/22 11:32:17;;;;;;;;;55.75;42.25;;;;;2.39;63.89;101782.22;4977668;28;45349;-66
2021/12/22 11:34:49;;;;;;;;;59.25;47.25;;;;;2.39;64.04;101783.97;4993532;28;47637;-66
2021/12/22 11:37:14;;;;;;;;;59.25;47.50;;;;;2.21;64.36;101766.44;4978288;28;45246;-66